sensor_id;sensor_type;location;lat;lon;timestamp;P1;durP1;ratioP1;P2;durP2;ratioP2
28724;SDS011;43472;48.980;9.646;2023-04-25T00:03:14;6.47;;;3.15;;
28724;SDS011;43472;48.980;9.646;2023-04-25T00:08:17;4.43;;;2.30;;
28724;SDS011;43472;48.980;9.646;2023-04-25T00:13:19;3.50;;;2.17;;
28724;SDS011;43472;48.980;9.646;2023-04-25T00:18:21;2.90;;;1.90;;
28724;SDS011;43472;48.980;9.646;2023-04-25T00:23:23;4.18;;;2.17;;
28724;SDS011;43472;48.980;9.646;2023-04-25T00:28:25;9.55;;;2.38;;
28724;SDS011;43472;48.980;9.646;2023-04-25T00:33:26;5.82;;;2.65;;
28724;SDS011;43472;48.980;9.646;2023-04-25T00:38:28;2.95;;;2.50;;
28724;SDS011;43472;48.980;9.646;2023-04-25T00:43:30;3.25;;;1.80;;
28724;SDS011;43472;48.980;9.646;2023-04-25T00:48:33;3.55;;;2.50;;
28724;SDS011;43472;48.980;9.646;2023-04-25T00:53:35;3.33;;;2.15;;
28724;SDS011;43472;48.980;9.646;2023-04-25T00:58:37;3.58;;;2.50;;
28724;SDS011;43472;48.980;9.646;2023-04-25T01:03:41;4.00;;;2.15;;
28724;SDS011;43472;48.980;9.646;2023-04-25T01:08:44;5.63;;;2.33;;
28724;SDS011;43472;48.980;9.646;2023-04-25T01:13:46;3.78;;;1.90;;
28724;SDS011;43472;48.980;9.646;2023-04-25T01:18:49;6.10;;;2.35;;
28724;SDS011;43472;48.980;9.646;2023-04-25T01:23:52;2.58;;;2.00;;
28724;SDS011;43472;48.980;9.646;2023-04-25T01:28:55;3.92;;;2.30;;
28724;SDS011;43472;48.980;9.646;2023-04-25T01:33:58;3.90;;;2.10;;
28724;SDS011;43472;48.980;9.646;2023-04-25T01:38:59;3.33;;;2.17;;
28724;SDS011;43472;48.980;9.646;2023-04-25T01:44:02;2.20;;;1.95;;
28724;SDS011;43472;48.980;9.646;2023-04-25T01:49:05;2.10;;;1.88;;
28724;SDS011;43472;48.980;9.646;2023-04-25T01:54:07;4.25;;;2.00;;
28724;SDS011;43472;48.980;9.646;2023-04-25T01:59:10;7.00;;;2.10;;
28724;SDS011;43472;48.980;9.646;2023-04-25T02:04:12;4.57;;;1.77;;
28724;SDS011;43472;48.980;9.646;2023-04-25T02:09:14;3.15;;;2.03;;
28724;SDS011;43472;48.980;9.646;2023-04-25T02:14:16;2.53;;;2.00;;
28724;SDS011;43472;48.980;9.646;2023-04-25T02:19:18;3.80;;;2.10;;
28724;SDS011;43472;48.980;9.646;2023-04-25T02:24:20;2.50;;;2.30;;
28724;SDS011;43472;48.980;9.646;2023-04-25T02:29:22;3.90;;;2.20;;
28724;SDS011;43472;48.980;9.646;2023-04-25T02:34:24;2.67;;;1.98;;
28724;SDS011;43472;48.980;9.646;2023-04-25T02:39:26;5.72;;;3.22;;
28724;SDS011;43472;48.980;9.646;2023-04-25T02:44:28;2.92;;;2.20;;
28724;SDS011;43472;48.980;9.646;2023-04-25T02:49:30;2.42;;;1.77;;
28724;SDS011;43472;48.980;9.646;2023-04-25T02:54:31;2.35;;;1.88;;
28724;SDS011;43472;48.980;9.646;2023-04-25T02:59:34;3.40;;;2.22;;
28724;SDS011;43472;48.980;9.646;2023-04-25T03:04:36;4.75;;;2.33;;
28724;SDS011;43472;48.980;9.646;2023-04-25T03:09:38;2.95;;;2.22;;
28724;SDS011;43472;48.980;9.646;2023-04-25T03:14:39;4.07;;;2.55;;
28724;SDS011;43472;48.980;9.646;2023-04-25T03:19:42;5.50;;;3.00;;
28724;SDS011;43472;48.980;9.646;2023-04-25T03:24:43;4.85;;;2.80;;
28724;SDS011;43472;48.980;9.646;2023-04-25T03:29:45;8.43;;;3.85;;
28724;SDS011;43472;48.980;9.646;2023-04-25T03:34:47;12.93;;;7.40;;
28724;SDS011;43472;48.980;9.646;2023-04-25T03:39:49;8.63;;;5.63;;
28724;SDS011;43472;48.980;9.646;2023-04-25T03:44:51;9.82;;;4.25;;
28724;SDS011;43472;48.980;9.646;2023-04-25T03:49:53;6.30;;;3.10;;
28724;SDS011;43472;48.980;9.646;2023-04-25T03:54:55;4.45;;;3.03;;
28724;SDS011;43472;48.980;9.646;2023-04-25T03:59:57;4.03;;;2.70;;
28724;SDS011;43472;48.980;9.646;2023-04-25T04:04:59;5.53;;;2.70;;
28724;SDS011;43472;48.980;9.646;2023-04-25T04:10:01;4.43;;;2.50;;
28724;SDS011;43472;48.980;9.646;2023-04-25T04:15:04;5.90;;;3.53;;
28724;SDS011;43472;48.980;9.646;2023-04-25T04:20:08;8.48;;;4.05;;
28724;SDS011;43472;48.980;9.646;2023-04-25T04:25:10;4.32;;;3.55;;
28724;SDS011;43472;48.980;9.646;2023-04-25T04:30:12;6.45;;;4.82;;
28724;SDS011;43472;48.980;9.646;2023-04-25T04:35:14;8.23;;;4.47;;
28724;SDS011;43472;48.980;9.646;2023-04-25T04:40:17;13.73;;;5.72;;
28724;SDS011;43472;48.980;9.646;2023-04-25T04:45:19;5.13;;;3.78;;
28724;SDS011;43472;48.980;9.646;2023-04-25T04:50:21;5.40;;;3.30;;
28724;SDS011;43472;48.980;9.646;2023-04-25T04:55:24;9.70;;;3.60;;
28724;SDS011;43472;48.980;9.646;2023-04-25T05:00:28;6.72;;;4.57;;
28724;SDS011;43472;48.980;9.646;2023-04-25T05:05:30;6.05;;;3.65;;
28724;SDS011;43472;48.980;9.646;2023-04-25T05:10:32;5.43;;;3.70;;
28724;SDS011;43472;48.980;9.646;2023-04-25T05:15:34;7.28;;;4.00;;
28724;SDS011;43472;48.980;9.646;2023-04-25T05:20:36;5.15;;;4.30;;
28724;SDS011;43472;48.980;9.646;2023-04-25T05:25:38;4.53;;;3.78;;
28724;SDS011;43472;48.980;9.646;2023-04-25T05:30:40;4.60;;;3.72;;
28724;SDS011;43472;48.980;9.646;2023-04-25T05:35:41;6.80;;;3.72;;
28724;SDS011;43472;48.980;9.646;2023-04-25T05:40:43;6.50;;;3.80;;
28724;SDS011;43472;48.980;9.646;2023-04-25T05:45:45;6.30;;;3.85;;
28724;SDS011;43472;48.980;9.646;2023-04-25T05:50:48;5.65;;;4.10;;
28724;SDS011;43472;48.980;9.646;2023-04-25T05:55:49;4.55;;;3.58;;
28724;SDS011;43472;48.980;9.646;2023-04-25T06:00:51;9.52;;;4.65;;
28724;SDS011;43472;48.980;9.646;2023-04-25T06:05:53;5.32;;;4.00;;
28724;SDS011;43472;48.980;9.646;2023-04-25T06:10:55;6.80;;;3.60;;
28724;SDS011;43472;48.980;9.646;2023-04-25T06:15:57;5.93;;;4.00;;
28724;SDS011;43472;48.980;9.646;2023-04-25T06:20:59;9.38;;;4.20;;
28724;SDS011;43472;48.980;9.646;2023-04-25T06:26:01;4.60;;;3.95;;
28724;SDS011;43472;48.980;9.646;2023-04-25T06:31:03;4.85;;;3.60;;
28724;SDS011;43472;48.980;9.646;2023-04-25T06:36:05;11.95;;;7.05;;
28724;SDS011;43472;48.980;9.646;2023-04-25T06:41:07;7.50;;;3.85;;
28724;SDS011;43472;48.980;9.646;2023-04-25T06:46:09;7.72;;;3.75;;
28724;SDS011;43472;48.980;9.646;2023-04-25T06:51:12;6.25;;;4.30;;
28724;SDS011;43472;48.980;9.646;2023-04-25T06:56:14;4.45;;;3.60;;
28724;SDS011;43472;48.980;9.646;2023-04-25T07:01:17;3.97;;;3.33;;
28724;SDS011;43472;48.980;9.646;2023-04-25T07:06:22;3.75;;;2.90;;
28724;SDS011;43472;48.980;9.646;2023-04-25T07:11:24;4.30;;;2.92;;
28724;SDS011;43472;48.980;9.646;2023-04-25T07:16:26;4.43;;;3.13;;
28724;SDS011;43472;48.980;9.646;2023-04-25T07:21:28;3.92;;;2.92;;
28724;SDS011;43472;48.980;9.646;2023-04-25T07:26:30;5.55;;;4.00;;
28724;SDS011;43472;48.980;9.646;2023-04-25T07:31:31;3.90;;;2.45;;
28724;SDS011;43472;48.980;9.646;2023-04-25T07:36:33;3.78;;;2.40;;
28724;SDS011;43472;48.980;9.646;2023-04-25T07:41:36;4.07;;;2.60;;
28724;SDS011;43472;48.980;9.646;2023-04-25T07:46:37;6.78;;;3.15;;
28724;SDS011;43472;48.980;9.646;2023-04-25T07:51:39;4.25;;;2.33;;
28724;SDS011;43472;48.980;9.646;2023-04-25T07:56:42;5.95;;;2.65;;
28724;SDS011;43472;48.980;9.646;2023-04-25T08:06:55;2.63;;;2.10;;
28724;SDS011;43472;48.980;9.646;2023-04-25T08:11:57;2.70;;;2.05;;
28724;SDS011;43472;48.980;9.646;2023-04-25T08:16:59;2.80;;;2.00;;
28724;SDS011;43472;48.980;9.646;2023-04-25T08:22:00;3.72;;;2.40;;
28724;SDS011;43472;48.980;9.646;2023-04-25T08:27:02;5.47;;;2.60;;
28724;SDS011;43472;48.980;9.646;2023-04-25T08:32:04;4.78;;;3.50;;
28724;SDS011;43472;48.980;9.646;2023-04-25T08:37:06;6.20;;;4.57;;
28724;SDS011;43472;48.980;9.646;2023-04-25T08:42:08;6.25;;;3.95;;
28724;SDS011;43472;48.980;9.646;2023-04-25T08:47:11;6.03;;;4.47;;
28724;SDS011;43472;48.980;9.646;2023-04-25T08:52:13;9.80;;;4.45;;
28724;SDS011;43472;48.980;9.646;2023-04-25T08:57:15;8.40;;;4.45;;
28724;SDS011;43472;48.980;9.646;2023-04-25T09:02:19;6.53;;;4.70;;
28724;SDS011;43472;48.980;9.646;2023-04-25T09:07:22;11.73;;;6.03;;
28724;SDS011;43472;48.980;9.646;2023-04-25T09:12:24;8.48;;;5.93;;
28724;SDS011;43472;48.980;9.646;2023-04-25T09:17:26;11.48;;;4.70;;
28724;SDS011;43472;48.980;9.646;2023-04-25T09:22:30;6.47;;;4.72;;
28724;SDS011;43472;48.980;9.646;2023-04-25T09:27:32;10.77;;;4.63;;
28724;SDS011;43472;48.980;9.646;2023-04-25T09:32:34;7.95;;;3.85;;
28724;SDS011;43472;48.980;9.646;2023-04-25T09:37:35;9.45;;;3.67;;
28724;SDS011;43472;48.980;9.646;2023-04-25T09:42:40;5.78;;;3.70;;
28724;SDS011;43472;48.980;9.646;2023-04-25T09:47:43;4.90;;;3.88;;
28724;SDS011;43472;48.980;9.646;2023-04-25T09:52:52;6.57;;;4.13;;
28724;SDS011;43472;48.980;9.646;2023-04-25T09:58:05;14.43;;;6.70;;
28724;SDS011;43472;48.980;9.646;2023-04-25T10:03:10;6.45;;;3.70;;
28724;SDS011;43472;48.980;9.646;2023-04-25T10:08:13;5.55;;;3.70;;
28724;SDS011;43472;48.980;9.646;2023-04-25T10:13:17;3.63;;;3.20;;
28724;SDS011;43472;48.980;9.646;2023-04-25T10:18:20;3.95;;;2.58;;
28724;SDS011;43472;48.980;9.646;2023-04-25T10:23:22;7.18;;;3.40;;
28724;SDS011;43472;48.980;9.646;2023-04-25T10:28:25;10.38;;;4.10;;
28724;SDS011;43472;48.980;9.646;2023-04-25T10:33:34;8.00;;;3.60;;
28724;SDS011;43472;48.980;9.646;2023-04-25T10:38:40;5.90;;;3.00;;
28724;SDS011;43472;48.980;9.646;2023-04-25T10:43:44;6.20;;;3.65;;
28724;SDS011;43472;48.980;9.646;2023-04-25T10:53:57;6.93;;;4.47;;
28724;SDS011;43472;48.980;9.646;2023-04-25T11:04:23;5.82;;;4.32;;
28724;SDS011;43472;48.980;9.646;2023-04-25T11:09:27;4.15;;;3.33;;
28724;SDS011;43472;48.980;9.646;2023-04-25T11:14:29;7.22;;;4.03;;
28724;SDS011;43472;48.980;9.646;2023-04-25T11:19:31;7.93;;;4.30;;
28724;SDS011;43472;48.980;9.646;2023-04-25T11:24:34;10.88;;;5.10;;
28724;SDS011;43472;48.980;9.646;2023-04-25T11:29:37;8.88;;;4.30;;
28724;SDS011;43472;48.980;9.646;2023-04-25T11:34:39;5.28;;;3.72;;
28724;SDS011;43472;48.980;9.646;2023-04-25T11:39:45;4.20;;;3.28;;
28724;SDS011;43472;48.980;9.646;2023-04-25T11:44:47;10.02;;;4.25;;
28724;SDS011;43472;48.980;9.646;2023-04-25T11:49:50;4.20;;;2.42;;
28724;SDS011;43472;48.980;9.646;2023-04-25T11:54:55;12.40;;;3.90;;
28724;SDS011;43472;48.980;9.646;2023-04-25T12:00:31;10.40;;;4.40;;
28724;SDS011;43472;48.980;9.646;2023-04-25T12:05:27;4.50;;;3.05;;
28724;SDS011;43472;48.980;9.646;2023-04-25T12:10:36;4.22;;;2.92;;
28724;SDS011;43472;48.980;9.646;2023-04-25T12:15:40;7.10;;;4.70;;
28724;SDS011;43472;48.980;9.646;2023-04-25T12:20:42;7.57;;;3.47;;
28724;SDS011;43472;48.980;9.646;2023-04-25T12:25:44;7.38;;;4.38;;
28724;SDS011;43472;48.980;9.646;2023-04-25T12:30:51;7.53;;;4.68;;
28724;SDS011;43472;48.980;9.646;2023-04-25T12:36:04;5.53;;;4.90;;
28724;SDS011;43472;48.980;9.646;2023-04-25T12:41:11;9.55;;;5.53;;
28724;SDS011;43472;48.980;9.646;2023-04-25T12:46:13;10.02;;;5.70;;
28724;SDS011;43472;48.980;9.646;2023-04-25T12:51:15;7.53;;;4.82;;
28724;SDS011;43472;48.980;9.646;2023-04-25T12:56:17;6.53;;;4.75;;
28724;SDS011;43472;48.980;9.646;2023-04-25T13:01:23;8.57;;;5.22;;
28724;SDS011;43472;48.980;9.646;2023-04-25T13:06:26;7.35;;;4.72;;
28724;SDS011;43472;48.980;9.646;2023-04-25T13:11:28;12.52;;;5.03;;
28724;SDS011;43472;48.980;9.646;2023-04-25T13:16:31;7.97;;;5.20;;
28724;SDS011;43472;48.980;9.646;2023-04-25T13:21:33;9.45;;;6.43;;
28724;SDS011;43472;48.980;9.646;2023-04-25T13:26:35;8.40;;;5.10;;
28724;SDS011;43472;48.980;9.646;2023-04-25T13:31:37;5.55;;;4.80;;
28724;SDS011;43472;48.980;9.646;2023-04-25T13:36:39;6.80;;;5.00;;
28724;SDS011;43472;48.980;9.646;2023-04-25T13:41:41;6.70;;;4.35;;
28724;SDS011;43472;48.980;9.646;2023-04-25T13:46:43;9.45;;;5.13;;
28724;SDS011;43472;48.980;9.646;2023-04-25T13:51:48;9.30;;;6.05;;
28724;SDS011;43472;48.980;9.646;2023-04-25T13:56:50;9.35;;;6.07;;
28724;SDS011;43472;48.980;9.646;2023-04-25T14:01:53;10.40;;;6.32;;
28724;SDS011;43472;48.980;9.646;2023-04-25T14:06:56;9.85;;;4.10;;
28724;SDS011;43472;48.980;9.646;2023-04-25T14:11:58;6.57;;;3.75;;
28724;SDS011;43472;48.980;9.646;2023-04-25T14:17:00;3.58;;;2.67;;
28724;SDS011;43472;48.980;9.646;2023-04-25T14:22:02;5.00;;;2.80;;
28724;SDS011;43472;48.980;9.646;2023-04-25T14:27:03;6.95;;;4.03;;
28724;SDS011;43472;48.980;9.646;2023-04-25T14:32:06;5.40;;;3.65;;
28724;SDS011;43472;48.980;9.646;2023-04-25T14:37:07;3.28;;;1.98;;
28724;SDS011;43472;48.980;9.646;2023-04-25T14:42:09;5.00;;;3.10;;
28724;SDS011;43472;48.980;9.646;2023-04-25T14:47:12;5.13;;;2.80;;
28724;SDS011;43472;48.980;9.646;2023-04-25T14:52:14;2.92;;;1.80;;
28724;SDS011;43472;48.980;9.646;2023-04-25T14:57:18;8.18;;;4.80;;
28724;SDS011;43472;48.980;9.646;2023-04-25T15:02:20;5.28;;;3.97;;
28724;SDS011;43472;48.980;9.646;2023-04-25T15:07:22;3.42;;;2.33;;
28724;SDS011;43472;48.980;9.646;2023-04-25T15:12:25;6.32;;;2.45;;
28724;SDS011;43472;48.980;9.646;2023-04-25T15:17:29;5.68;;;3.20;;
28724;SDS011;43472;48.980;9.646;2023-04-25T15:22:32;3.15;;;2.70;;
28724;SDS011;43472;48.980;9.646;2023-04-25T15:27:34;5.07;;;3.63;;
28724;SDS011;43472;48.980;9.646;2023-04-25T15:32:41;5.50;;;3.50;;
28724;SDS011;43472;48.980;9.646;2023-04-25T15:37:44;6.60;;;4.53;;
28724;SDS011;43472;48.980;9.646;2023-04-25T15:42:51;5.03;;;2.65;;
28724;SDS011;43472;48.980;9.646;2023-04-25T15:47:54;3.53;;;2.75;;
28724;SDS011;43472;48.980;9.646;2023-04-25T15:52:57;5.72;;;3.72;;
28724;SDS011;43472;48.980;9.646;2023-04-25T15:57:59;28.27;;;12.48;;
28724;SDS011;43472;48.980;9.646;2023-04-25T16:03:02;7.47;;;5.35;;
28724;SDS011;43472;48.980;9.646;2023-04-25T16:08:05;5.43;;;4.03;;
28724;SDS011;43472;48.980;9.646;2023-04-25T16:13:07;6.63;;;4.18;;
28724;SDS011;43472;48.980;9.646;2023-04-25T16:18:09;8.52;;;5.13;;
28724;SDS011;43472;48.980;9.646;2023-04-25T16:23:10;6.78;;;4.50;;
28724;SDS011;43472;48.980;9.646;2023-04-25T16:28:12;27.65;;;12.07;;
28724;SDS011;43472;48.980;9.646;2023-04-25T16:33:16;5.78;;;4.28;;
28724;SDS011;43472;48.980;9.646;2023-04-25T16:38:18;7.35;;;4.80;;
28724;SDS011;43472;48.980;9.646;2023-04-25T16:43:19;10.60;;;6.15;;
28724;SDS011;43472;48.980;9.646;2023-04-25T16:48:21;7.60;;;5.03;;
28724;SDS011;43472;48.980;9.646;2023-04-25T16:53:24;8.02;;;5.20;;
28724;SDS011;43472;48.980;9.646;2023-04-25T16:58:26;12.00;;;7.47;;
28724;SDS011;43472;48.980;9.646;2023-04-25T17:03:29;11.43;;;8.10;;
28724;SDS011;43472;48.980;9.646;2023-04-25T17:08:35;10.98;;;5.68;;
28724;SDS011;43472;48.980;9.646;2023-04-25T17:13:37;21.98;;;12.27;;
28724;SDS011;43472;48.980;9.646;2023-04-25T17:18:39;11.68;;;8.40;;
28724;SDS011;43472;48.980;9.646;2023-04-25T17:23:45;21.38;;;15.73;;
28724;SDS011;43472;48.980;9.646;2023-04-25T17:28:47;15.70;;;8.77;;
28724;SDS011;43472;48.980;9.646;2023-04-25T17:33:50;15.55;;;6.57;;
28724;SDS011;43472;48.980;9.646;2023-04-25T17:38:52;11.23;;;7.20;;
28724;SDS011;43472;48.980;9.646;2023-04-25T17:43:54;14.15;;;8.70;;
28724;SDS011;43472;48.980;9.646;2023-04-25T17:48:56;15.02;;;7.65;;
28724;SDS011;43472;48.980;9.646;2023-04-25T17:53:58;9.95;;;6.18;;
28724;SDS011;43472;48.980;9.646;2023-04-25T17:59:00;10.10;;;5.45;;
28724;SDS011;43472;48.980;9.646;2023-04-25T18:04:02;20.90;;;11.05;;
28724;SDS011;43472;48.980;9.646;2023-04-25T18:09:04;10.68;;;5.93;;
28724;SDS011;43472;48.980;9.646;2023-04-25T18:14:17;11.07;;;6.43;;
28724;SDS011;43472;48.980;9.646;2023-04-25T18:19:20;13.63;;;6.95;;
28724;SDS011;43472;48.980;9.646;2023-04-25T18:24:23;8.23;;;6.28;;
28724;SDS011;43472;48.980;9.646;2023-04-25T18:29:28;11.88;;;7.43;;
28724;SDS011;43472;48.980;9.646;2023-04-25T18:34:34;11.27;;;5.18;;
28724;SDS011;43472;48.980;9.646;2023-04-25T18:39:36;8.82;;;4.95;;
28724;SDS011;43472;48.980;9.646;2023-04-25T18:44:38;9.75;;;6.07;;
28724;SDS011;43472;48.980;9.646;2023-04-25T18:49:40;11.65;;;6.22;;
28724;SDS011;43472;48.980;9.646;2023-04-25T18:54:42;13.77;;;6.78;;
28724;SDS011;43472;48.980;9.646;2023-04-25T18:59:44;7.45;;;5.72;;
28724;SDS011;43472;48.980;9.646;2023-04-25T19:04:46;12.07;;;6.72;;
28724;SDS011;43472;48.980;9.646;2023-04-25T19:09:48;10.25;;;6.30;;
28724;SDS011;43472;48.980;9.646;2023-04-25T19:14:50;12.20;;;7.15;;
28724;SDS011;43472;48.980;9.646;2023-04-25T19:19:52;10.40;;;6.35;;
28724;SDS011;43472;48.980;9.646;2023-04-25T19:24:54;19.42;;;6.00;;
28724;SDS011;43472;48.980;9.646;2023-04-25T19:30:09;13.65;;;6.47;;
28724;SDS011;43472;48.980;9.646;2023-04-25T19:35:12;14.30;;;8.77;;
28724;SDS011;43472;48.980;9.646;2023-04-25T19:40:14;13.02;;;6.88;;
28724;SDS011;43472;48.980;9.646;2023-04-25T19:45:18;99.93;;;38.45;;
28724;SDS011;43472;48.980;9.646;2023-04-25T19:50:20;191.80;;;60.83;;
28724;SDS011;43472;48.980;9.646;2023-04-25T19:55:22;22.77;;;11.43;;
28724;SDS011;43472;48.980;9.646;2023-04-25T20:00:24;35.95;;;15.63;;
28724;SDS011;43472;48.980;9.646;2023-04-25T20:05:27;14.43;;;7.65;;
28724;SDS011;43472;48.980;9.646;2023-04-25T20:10:28;12.15;;;6.38;;
28724;SDS011;43472;48.980;9.646;2023-04-25T20:15:36;12.73;;;6.32;;
28724;SDS011;43472;48.980;9.646;2023-04-25T20:20:38;16.90;;;8.32;;
28724;SDS011;43472;48.980;9.646;2023-04-25T20:25:40;13.35;;;5.90;;
28724;SDS011;43472;48.980;9.646;2023-04-25T20:30:43;16.77;;;7.90;;
28724;SDS011;43472;48.980;9.646;2023-04-25T20:35:45;11.68;;;7.97;;
28724;SDS011;43472;48.980;9.646;2023-04-25T20:40:47;20.55;;;10.18;;
28724;SDS011;43472;48.980;9.646;2023-04-25T20:45:49;13.40;;;8.63;;
28724;SDS011;43472;48.980;9.646;2023-04-25T20:50:51;12.60;;;8.10;;
28724;SDS011;43472;48.980;9.646;2023-04-25T20:55:53;13.43;;;7.57;;
28724;SDS011;43472;48.980;9.646;2023-04-25T21:00:55;11.20;;;7.18;;
28724;SDS011;43472;48.980;9.646;2023-04-25T21:05:57;15.77;;;7.75;;
28724;SDS011;43472;48.980;9.646;2023-04-25T21:10:58;16.70;;;9.13;;
28724;SDS011;43472;48.980;9.646;2023-04-25T21:16:01;21.05;;;10.80;;
28724;SDS011;43472;48.980;9.646;2023-04-25T21:21:03;13.10;;;7.57;;
28724;SDS011;43472;48.980;9.646;2023-04-25T21:26:06;18.15;;;9.60;;
28724;SDS011;43472;48.980;9.646;2023-04-25T21:31:08;20.35;;;11.75;;
28724;SDS011;43472;48.980;9.646;2023-04-25T21:36:10;26.70;;;12.50;;
28724;SDS011;43472;48.980;9.646;2023-04-25T21:41:12;14.80;;;7.25;;
28724;SDS011;43472;48.980;9.646;2023-04-25T21:46:13;11.98;;;7.88;;
28724;SDS011;43472;48.980;9.646;2023-04-25T21:51:24;11.85;;;8.88;;
28724;SDS011;43472;48.980;9.646;2023-04-25T21:56:26;29.77;;;13.77;;
28724;SDS011;43472;48.980;9.646;2023-04-25T22:01:28;16.60;;;10.07;;
28724;SDS011;43472;48.980;9.646;2023-04-25T22:06:30;19.00;;;10.73;;
28724;SDS011;43472;48.980;9.646;2023-04-25T22:11:32;18.67;;;10.98;;
28724;SDS011;43472;48.980;9.646;2023-04-25T22:16:34;18.42;;;9.68;;
28724;SDS011;43472;48.980;9.646;2023-04-25T22:21:36;36.60;;;10.75;;
28724;SDS011;43472;48.980;9.646;2023-04-25T22:26:37;45.40;;;10.35;;
28724;SDS011;43472;48.980;9.646;2023-04-25T22:31:39;16.50;;;9.02;;
28724;SDS011;43472;48.980;9.646;2023-04-25T22:36:42;12.23;;;8.65;;
28724;SDS011;43472;48.980;9.646;2023-04-25T22:41:44;11.48;;;7.85;;
28724;SDS011;43472;48.980;9.646;2023-04-25T22:46:46;14.20;;;8.50;;
28724;SDS011;43472;48.980;9.646;2023-04-25T22:51:48;23.30;;;12.80;;
28724;SDS011;43472;48.980;9.646;2023-04-25T22:56:55;17.33;;;11.35;;
28724;SDS011;43472;48.980;9.646;2023-04-25T23:01:58;16.23;;;10.95;;
28724;SDS011;43472;48.980;9.646;2023-04-25T23:07:00;17.38;;;10.38;;
28724;SDS011;43472;48.980;9.646;2023-04-25T23:12:02;27.45;;;13.20;;
28724;SDS011;43472;48.980;9.646;2023-04-25T23:17:04;21.55;;;11.35;;
28724;SDS011;43472;48.980;9.646;2023-04-25T23:22:07;17.13;;;10.77;;
28724;SDS011;43472;48.980;9.646;2023-04-25T23:27:09;20.88;;;12.88;;
28724;SDS011;43472;48.980;9.646;2023-04-25T23:32:11;22.10;;;12.32;;
28724;SDS011;43472;48.980;9.646;2023-04-25T23:37:13;19.58;;;10.15;;
28724;SDS011;43472;48.980;9.646;2023-04-25T23:42:15;16.33;;;10.98;;
28724;SDS011;43472;48.980;9.646;2023-04-25T23:47:17;20.48;;;10.32;;
28724;SDS011;43472;48.980;9.646;2023-04-25T23:52:19;18.60;;;9.68;;
28724;SDS011;43472;48.980;9.646;2023-04-25T23:57:21;24.08;;;10.27;;
